Zeynalabdin Tagiyev — 9HLD8 — position and weather

sailwx.info

Track history (hours):
 
Tides and Currents Weather Stations Pressure Air Temp Water Temp Dewpoint Dewpoint Depression Visibility Wind Speed Wind Dir Waves Ship Positions

Zeynalabdin Tagiyev

Last reported at 2014-Jul-23 04:11 UTC. Time now 2014-Jul-23 09:54 UTC.
Position N 58°00' E 006°29'.

Length 140 m; draft 3.7 m.

Type: Cargo ship. MMSI: 256107000.

Date/timePositionNaut miles runAvg speedWind from/ knotsBaromVisibWave heightAir tempDewpointWater temp
2014-Jul-23 04:11N 58°00' E 006°29'6 9.6
2014-Jul-23 03:33N 58°05' E 006°22'10 9.7
2014-Jul-23 02:33N 58°12' E 006°09'10 9.8
2014-Jul-23 01:33N 58°19' E 005°56'1110.0
2014-Jul-23 00:29N 58°26' E 005°42'10 9.7
2014-Jul-22 23:26N 58°35' E 005°31'910.0
2014-Jul-22 22:34N 58°43' E 005°25'1010.1
2014-Jul-22 21:33N 58°53' E 005°31'1010.0
2014-Jul-22 20:34N 59°02' E 005°36'7 6.6
2014-Jul-22 19:33N 58°59' E 005°47'1 0.7
2014-Jul-22 18:32N 58°58' E 005°45'0 0.0
2014-Jul-22 17:33N 58°58' E 005°45'0 0.0
2014-Jul-22 16:31N 58°58' E 005°45'0 0.0
2014-Jul-22 15:31N 58°58' E 005°45'0 0.0
2014-Jul-22 14:33N 58°58' E 005°45'0 0.0
2014-Jul-22 13:33N 58°58' E 005°45'0 0.0
2014-Jul-22 12:33N 58°58' E 005°45'0 0.0
2014-Jul-22 11:30N 58°58' E 005°45'0 0.0
2014-Jul-22 10:32N 58°58' E 005°45'0 0.0
2014-Jul-22 09:33N 58°58' E 005°45'0 0.0
2014-Jul-22 08:31N 58°58' E 005°45'0 0.0
2014-Jul-22 07:30N 58°58' E 005°45'0 0.0
2014-Jul-22 06:33N 58°58' E 005°45'0 0.0
2014-Jul-22 05:32N 58°58' E 005°45'0 0.0
2014-Jul-22 04:32N 58°58' E 005°45'0 0.0
2014-Jul-22 03:32N 58°58' E 005°45'0 0.0
2014-Jul-22 02:31N 58°58' E 005°45'0 0.0
2014-Jul-22 01:28N 58°58' E 005°45'0 0.0
2014-Jul-22 00:31N 58°58' E 005°45'0 0.0
2014-Jul-21 23:29N 58°58' E 005°45'0 0.0
2014-Jul-21 22:33N 58°58' E 005°45'0 0.0
2014-Jul-21 21:31N 58°58' E 005°45'0 0.0
2014-Jul-21 20:31N 58°58' E 005°45'0 0.0
2014-Jul-21 20:16N 58°58' E 005°45'0 0.0
2014-Jul-21 19:32N 58°58' E 005°45'0 0.0
2014-Jul-21 18:33N 58°58' E 005°45'0 0.0
2014-Jul-21 17:33N 58°58' E 005°45'0 0.0
2014-Jul-21 16:32N 58°58' E 005°45'0 0.0
2014-Jul-21 15:31N 58°58' E 005°45'0 0.0
2014-Jul-21 14:32N 58°58' E 005°45'0 0.0
2014-Jul-21 13:31N 58°58' E 005°45'0 0.0
2014-Jul-21 12:31N 58°58' E 005°45'0 0.0
2014-Jul-21 11:32N 58°58' E 005°45'0 0.0
2014-Jul-21 10:34N 58°58' E 005°45'0 0.0
2014-Jul-21 09:32N 58°58' E 005°45'0 0.0
2014-Jul-21 08:33N 58°58' E 005°45'0 0.0
2014-Jul-21 07:31N 58°58' E 005°45'0 0.0
2014-Jul-21 06:32N 58°58' E 005°45'0 0.0
2014-Jul-21 05:33N 58°58' E 005°45'0 0.0
2014-Jul-21 04:33N 58°58' E 005°45'0 0.0
2014-Jul-21 03:33N 58°58' E 005°45'0 0.0
2014-Jul-21 02:32N 58°58' E 005°45'0 0.0
2014-Jul-21 01:31N 58°58' E 005°45'0 0.0
2014-Jul-21 00:31N 58°58' E 005°45'0 0.0
2014-Jul-20 23:32N 58°58' E 005°45'0 0.0
2014-Jul-20 22:33N 58°58' E 005°45'0 0.0
2014-Jul-20 21:32N 58°58' E 005°45'0 0.0
2014-Jul-20 20:32N 58°58' E 005°45'0 0.0
2014-Jul-20 19:31N 58°58' E 005°45'0 0.0
2014-Jul-20 18:32N 58°58' E 005°45'0 0.0
2014-Jul-20 17:32N 58°58' E 005°45'0 0.0
2014-Jul-20 16:33N 58°58' E 005°45'0 0.0
2014-Jul-20 15:31N 58°58' E 005°45'0 0.0
2014-Jul-20 14:32N 58°58' E 005°45'0 0.0
2014-Jul-20 13:33N 58°58' E 005°45'0 0.0
2014-Jul-20 12:32N 58°58' E 005°45'0 0.0
2014-Jul-20 11:30N 58°58' E 005°45'0 0.0
2014-Jul-20 10:33N 58°58' E 005°45'0 0.0
2014-Jul-20 09:33N 58°58' E 005°45'0 0.0
2014-Jul-20 08:31N 58°58' E 005°45'0 0.0
2014-Jul-20 07:33N 58°58' E 005°45'0 0.0
2014-Jul-20 06:31N 58°58' E 005°45'0 0.0
2014-Jul-20 05:31N 58°58' E 005°45'0 0.0
2014-Jul-20 04:33N 58°58' E 005°45'0 0.0
2014-Jul-20 03:31N 58°58' E 005°45'0 0.0
2014-Jul-20 02:31N 58°58' E 005°45'0 0.0
2014-Jul-20 01:31N 58°58' E 005°45'0 0.0
2014-Jul-20 00:31N 58°58' E 005°45'0 0.0
2014-Jul-19 23:32N 58°58' E 005°45'0 0.0
2014-Jul-19 22:32N 58°58' E 005°45'0 0.0
2014-Jul-19 21:31N 58°58' E 005°45'0 0.0
2014-Jul-19 20:31N 58°58' E 005°45'0 0.0
2014-Jul-19 19:30N 58°58' E 005°45'0 0.0
2014-Jul-19 18:31N 58°58' E 005°45'0 0.0
2014-Jul-19 17:31N 58°58' E 005°45'0 0.0
2014-Jul-19 16:33N 58°58' E 005°45'0 0.0
2014-Jul-19 15:31N 58°58' E 005°45'0 0.0
2014-Jul-19 14:31N 58°58' E 005°45'0 0.0
2014-Jul-19 13:32N 58°58' E 005°45'0 0.0
2014-Jul-19 12:33N 58°58' E 005°45'0 0.0
2014-Jul-19 11:31N 58°58' E 005°45'0 0.0
2014-Jul-19 10:30N 58°58' E 005°45'0 0.0
2014-Jul-19 09:30N 58°58' E 005°45'0 0.0
2014-Jul-19 08:31N 58°58' E 005°45'0 0.0
2014-Jul-19 07:33N 58°58' E 005°45'0 0.0
2014-Jul-19 06:32N 58°58' E 005°45'0 0.0
2014-Jul-19 05:33N 58°58' E 005°45'0 0.0
2014-Jul-19 04:32N 58°58' E 005°45'0 0.0
2014-Jul-19 03:33N 58°58' E 005°45'0 0.0
2014-Jul-19 02:31N 58°58' E 005°45'0 0.0
2014-Jul-19 01:33N 58°58' E 005°45'0 0.0
2014-Jul-19 00:33N 58°58' E 005°45'0 0.0
2014-Jul-18 23:33N 58°58' E 005°45'0 0.0
2014-Jul-18 22:26N 58°58' E 005°45'0 0.0
2014-Jul-18 21:31N 58°58' E 005°45'0 0.0
2014-Jul-18 20:31N 58°58' E 005°45'0 0.0
2014-Jul-18 19:29N 58°58' E 005°45'0 0.0
2014-Jul-18 18:32N 58°58' E 005°45'0 0.0
2014-Jul-18 17:31N 58°58' E 005°45'0 0.0
2014-Jul-18 16:32N 58°58' E 005°45'0 0.0
2014-Jul-18 15:31N 58°58' E 005°45'0 0.0
2014-Jul-18 14:34N 58°58' E 005°45'0 0.0
2014-Jul-18 13:32N 58°58' E 005°45'0 0.0
2014-Jul-18 12:32N 58°58' E 005°45'0 0.0
2014-Jul-18 11:28N 58°58' E 005°45'0 0.0
2014-Jul-18 10:34N 58°58' E 005°45'0 0.0
2014-Jul-18 09:33N 58°58' E 005°45'0 0.0
2014-Jul-18 08:32N 58°58' E 005°45'0 0.0
2014-Jul-18 07:32N 58°58' E 005°45'0 0.0
2014-Jul-18 06:34N 58°58' E 005°45'0 0.0
2014-Jul-18 05:33N 58°58' E 005°45'0 0.0
2014-Jul-18 04:33N 58°58' E 005°45'0 0.0
2014-Jul-18 03:31N 58°58' E 005°45'0 0.0
2014-Jul-18 02:31N 58°58' E 005°45'0 0.0
2014-Jul-18 01:32N 58°58' E 005°45'0 0.0
2014-Jul-18 00:33N 58°58' E 005°45'0 0.0
2014-Jul-17 23:33N 58°58' E 005°45'0 0.0
2014-Jul-17 22:33N 58°58' E 005°45'0 0.0
2014-Jul-17 21:30N 58°58' E 005°45'0 0.0
2014-Jul-17 20:31N 58°58' E 005°45'0 0.0
2014-Jul-17 19:27N 58°58' E 005°45'0 0.0
2014-Jul-17 18:32N 58°58' E 005°45'0 0.0
2014-Jul-17 17:31N 58°58' E 005°45'0 0.0
2014-Jul-17 16:33N 58°58' E 005°45'0 0.0
2014-Jul-17 15:33N 58°58' E 005°45'0 0.0
2014-Jul-17 14:32N 58°58' E 005°45'0 0.0
2014-Jul-17 13:32N 58°58' E 005°45'0 0.0
2014-Jul-17 12:33N 58°58' E 005°45'0 0.0
2014-Jul-17 11:33N 58°58' E 005°45'0 0.0
2014-Jul-17 10:32N 58°58' E 005°45'0 0.0
2014-Jul-17 09:31N 58°58' E 005°45'0 0.0
2014-Jul-17 08:31N 58°58' E 005°45'0 0.0
2014-Jul-17 07:29N 58°58' E 005°45'0 0.0
2014-Jul-17 06:33N 58°58' E 005°45'0 0.0
2014-Jul-17 05:32N 58°58' E 005°45'0 0.0
2014-Jul-17 04:32N 58°58' E 005°45'0 0.0
2014-Jul-17 03:31N 58°58' E 005°45'0 0.0
2014-Jul-17 02:31N 58°58' E 005°45'0 0.0
2014-Jul-17 01:32N 58°58' E 005°45'0 0.0
2014-Jul-17 00:32N 58°58' E 005°45'0 0.0
2014-Jul-16 23:32N 58°58' E 005°45'0 0.0
2014-Jul-16 22:32N 58°58' E 005°45'0 0.0
2014-Jul-16 21:29N 58°58' E 005°45'0 0.0
2014-Jul-16 20:33N 58°58' E 005°45'0 0.0
2014-Jul-16 19:33N 58°58' E 005°45'0 0.0
2014-Jul-16 18:31N 58°58' E 005°45'0 0.0
2014-Jul-16 17:33N 58°58' E 005°45'0 0.0
2014-Jul-16 16:33N 58°58' E 005°45'0 0.0
2014-Jul-16 15:28N 58°58' E 005°45'0 0.0
2014-Jul-16 14:26N 58°58' E 005°45'0 0.0
2014-Jul-16 13:33N 58°58' E 005°45'0 0.0
2014-Jul-16 12:32N 58°58' E 005°45'0 0.0
2014-Jul-16 11:33N 58°58' E 005°45'0 0.0
2014-Jul-16 10:30N 58°58' E 005°45'0 0.0
2014-Jul-16 09:33N 58°58' E 005°45'0 0.0
2014-Jul-16 08:33N 58°58' E 005°45'0 0.0
2014-Jul-16 07:32N 58°58' E 005°45'0 0.0
2014-Jul-16 06:30N 58°58' E 005°45'0 0.0
2014-Jul-16 05:33N 58°58' E 005°45'0 0.0
2014-Jul-16 04:33N 58°58' E 005°45'0 0.0
2014-Jul-16 03:31N 58°58' E 005°45'0 0.0
2014-Jul-16 02:31N 58°58' E 005°45'0 0.0
2014-Jul-16 01:32N 58°58' E 005°45'0 0.0
2014-Jul-16 00:30N 58°58' E 005°45'0 0.0
2014-Jul-15 23:31N 58°58' E 005°45'0 0.0
2014-Jul-15 22:26N 58°58' E 005°45'0 0.0
2014-Jul-15 21:27N 58°58' E 005°45'0 0.0
2014-Jul-15 20:31N 58°58' E 005°45'0 0.0
2014-Jul-15 19:29N 58°58' E 005°45'0 0.0
2014-Jul-15 18:32N 58°58' E 005°45'0 0.0
2014-Jul-15 17:32N 58°58' E 005°45'0 0.0
2014-Jul-15 16:33N 58°58' E 005°45'0 0.0
2014-Jul-15 15:32N 58°58' E 005°45'0 0.0
2014-Jul-15 14:33N 58°58' E 005°45'0 0.0
2014-Jul-15 13:31N 58°58' E 005°45'0 0.0
2014-Jul-15 12:33N 58°58' E 005°45'0 0.0
2014-Jul-15 11:31N 58°58' E 005°45'0 0.0
2014-Jul-15 10:33N 58°58' E 005°45'0 0.0
2014-Jul-15 09:33N 58°58' E 005°45'3 3.0
2014-Jul-15 08:33N 59°01' E 005°48'8 7.5
2014-Jul-15 07:33N 59°02' E 005°33'1010.2
2014-Jul-15 06:33N 58°52' E 005°31'6 6.3
2014-Jul-15 05:33N 58°48' E 005°20'26 6.2
2014-Jul-15 01:17N 58°22' E 005°23'2210.0
2014-Jul-14 23:06N 58°08' E 005°55'6 9.9
2014-Jul-14 22:28N 58°03' E 006°03'131 8.5
2014-Jul-14 07:06N 55°58' E 007°10'5 8.6
2014-Jul-14 06:33N 55°53' E 007°11'9 8.4
2014-Jul-14 05:32N 55°44' E 007°12'8 8.4
2014-Jul-14 04:33N 55°36' E 007°15'9 8.9
2014-Jul-14 03:33N 55°28' E 007°17'8 8.1
2014-Jul-14 02:32N 55°20' E 007°20'1616.1
2014-Jul-14 01:32N 55°03' E 007°22'1 1.2
2014-Jul-14 00:33N 55°02' E 007°22'21 8.6
2014-Jul-13 22:10N 54°42' E 007°21'76 9.5
2014-Jul-13 14:07N 54°29' E 005°11'5 9.3
2014-Jul-13 13:33N 54°24' E 005°07'9 9.4
2014-Jul-13 12:33N 54°16' E 004°58'10 9.4
2014-Jul-13 11:32N 54°08' E 004°50'5310.0
2014-Jul-13 06:17N 53°31' E 003°47'  
Track history (hours):
 
Tides and Currents Weather Stations Pressure Air Temp Water Temp Dewpoint Dewpoint Depression Visibility Wind Speed Wind Dir Waves Ship Positions

Zeynalabdin Tagiyev

Last reported at 2014-Jul-23 04:11 UTC. Time now 2014-Jul-23 09:54 UTC.
Position N 58°00' E 006°29'.

Length 140 m; draft 3.7 m.

Type: Cargo ship. MMSI: 256107000.

Date/timePositionNaut miles runAvg speedWind from/ knotsBaromVisibWave heightAir tempDewpointWater temp
2014-Jul-23 04:11N 58°00' E 006°29'6 9.6
2014-Jul-23 03:33N 58°05' E 006°22'10 9.7
2014-Jul-23 02:33N 58°12' E 006°09'10 9.8
2014-Jul-23 01:33N 58°19' E 005°56'1110.0
2014-Jul-23 00:29N 58°26' E 005°42'10 9.7
2014-Jul-22 23:26N 58°35' E 005°31'910.0
2014-Jul-22 22:34N 58°43' E 005°25'1010.1
2014-Jul-22 21:33N 58°53' E 005°31'1010.0
2014-Jul-22 20:34N 59°02' E 005°36'7 6.6
2014-Jul-22 19:33N 58°59' E 005°47'1 0.7
2014-Jul-22 18:32N 58°58' E 005°45'0 0.0
2014-Jul-22 17:33N 58°58' E 005°45'0 0.0
2014-Jul-22 16:31N 58°58' E 005°45'0 0.0
2014-Jul-22 15:31N 58°58' E 005°45'0 0.0
2014-Jul-22 14:33N 58°58' E 005°45'0 0.0
2014-Jul-22 13:33N 58°58' E 005°45'0 0.0
2014-Jul-22 12:33N 58°58' E 005°45'0 0.0
2014-Jul-22 11:30N 58°58' E 005°45'0 0.0
2014-Jul-22 10:32N 58°58' E 005°45'0 0.0
2014-Jul-22 09:33N 58°58' E 005°45'0 0.0
2014-Jul-22 08:31N 58°58' E 005°45'0 0.0
2014-Jul-22 07:30N 58°58' E 005°45'0 0.0
2014-Jul-22 06:33N 58°58' E 005°45'0 0.0
2014-Jul-22 05:32N 58°58' E 005°45'0 0.0
2014-Jul-22 04:32N 58°58' E 005°45'0 0.0
2014-Jul-22 03:32N 58°58' E 005°45'0 0.0
2014-Jul-22 02:31N 58°58' E 005°45'0 0.0
2014-Jul-22 01:28N 58°58' E 005°45'0 0.0
2014-Jul-22 00:31N 58°58' E 005°45'0 0.0
2014-Jul-21 23:29N 58°58' E 005°45'0 0.0
2014-Jul-21 22:33N 58°58' E 005°45'0 0.0
2014-Jul-21 21:31N 58°58' E 005°45'0 0.0
2014-Jul-21 20:31N 58°58' E 005°45'0 0.0
2014-Jul-21 20:16N 58°58' E 005°45'0 0.0
2014-Jul-21 19:32N 58°58' E 005°45'0 0.0
2014-Jul-21 18:33N 58°58' E 005°45'0 0.0
2014-Jul-21 17:33N 58°58' E 005°45'0 0.0
2014-Jul-21 16:32N 58°58' E 005°45'0 0.0
2014-Jul-21 15:31N 58°58' E 005°45'0 0.0
2014-Jul-21 14:32N 58°58' E 005°45'0 0.0
2014-Jul-21 13:31N 58°58' E 005°45'0 0.0
2014-Jul-21 12:31N 58°58' E 005°45'0 0.0
2014-Jul-21 11:32N 58°58' E 005°45'0 0.0
2014-Jul-21 10:34N 58°58' E 005°45'0 0.0
2014-Jul-21 09:32N 58°58' E 005°45'0 0.0
2014-Jul-21 08:33N 58°58' E 005°45'0 0.0
2014-Jul-21 07:31N 58°58' E 005°45'0 0.0
2014-Jul-21 06:32N 58°58' E 005°45'0 0.0
2014-Jul-21 05:33N 58°58' E 005°45'0 0.0
2014-Jul-21 04:33N 58°58' E 005°45'0 0.0
2014-Jul-21 03:33N 58°58' E 005°45'0 0.0
2014-Jul-21 02:32N 58°58' E 005°45'0 0.0
2014-Jul-21 01:31N 58°58' E 005°45'0 0.0
2014-Jul-21 00:31N 58°58' E 005°45'0 0.0
2014-Jul-20 23:32N 58°58' E 005°45'0 0.0
2014-Jul-20 22:33N 58°58' E 005°45'0 0.0
2014-Jul-20 21:32N 58°58' E 005°45'0 0.0
2014-Jul-20 20:32N 58°58' E 005°45'0 0.0
2014-Jul-20 19:31N 58°58' E 005°45'0 0.0
2014-Jul-20 18:32N 58°58' E 005°45'0 0.0
2014-Jul-20 17:32N 58°58' E 005°45'0 0.0
2014-Jul-20 16:33N 58°58' E 005°45'0 0.0
2014-Jul-20 15:31N 58°58' E 005°45'0 0.0
2014-Jul-20 14:32N 58°58' E 005°45'0 0.0
2014-Jul-20 13:33N 58°58' E 005°45'0 0.0
2014-Jul-20 12:32N 58°58' E 005°45'0 0.0
2014-Jul-20 11:30N 58°58' E 005°45'0 0.0
2014-Jul-20 10:33N 58°58' E 005°45'0 0.0
2014-Jul-20 09:33N 58°58' E 005°45'0 0.0
2014-Jul-20 08:31N 58°58' E 005°45'0 0.0
2014-Jul-20 07:33N 58°58' E 005°45'0 0.0
2014-Jul-20 06:31N 58°58' E 005°45'0 0.0
2014-Jul-20 05:31N 58°58' E 005°45'0 0.0
2014-Jul-20 04:33N 58°58' E 005°45'0 0.0
2014-Jul-20 03:31N 58°58' E 005°45'0 0.0
2014-Jul-20 02:31N 58°58' E 005°45'0 0.0
2014-Jul-20 01:31N 58°58' E 005°45'0 0.0
2014-Jul-20 00:31N 58°58' E 005°45'0 0.0
2014-Jul-19 23:32N 58°58' E 005°45'0 0.0
2014-Jul-19 22:32N 58°58' E 005°45'0 0.0
2014-Jul-19 21:31N 58°58' E 005°45'0 0.0
2014-Jul-19 20:31N 58°58' E 005°45'0 0.0
2014-Jul-19 19:30N 58°58' E 005°45'0 0.0
2014-Jul-19 18:31N 58°58' E 005°45'0 0.0
2014-Jul-19 17:31N 58°58' E 005°45'0 0.0
2014-Jul-19 16:33N 58°58' E 005°45'0 0.0
2014-Jul-19 15:31N 58°58' E 005°45'0 0.0
2014-Jul-19 14:31N 58°58' E 005°45'0 0.0
2014-Jul-19 13:32N 58°58' E 005°45'0 0.0
2014-Jul-19 12:33N 58°58' E 005°45'0 0.0
2014-Jul-19 11:31N 58°58' E 005°45'0 0.0
2014-Jul-19 10:30N 58°58' E 005°45'0 0.0
2014-Jul-19 09:30N 58°58' E 005°45'0 0.0
2014-Jul-19 08:31N 58°58' E 005°45'0 0.0
2014-Jul-19 07:33N 58°58' E 005°45'0 0.0
2014-Jul-19 06:32N 58°58' E 005°45'0 0.0
2014-Jul-19 05:33N 58°58' E 005°45'0 0.0
2014-Jul-19 04:32N 58°58' E 005°45'0 0.0
2014-Jul-19 03:33N 58°58' E 005°45'0 0.0
2014-Jul-19 02:31N 58°58' E 005°45'0 0.0
2014-Jul-19 01:33N 58°58' E 005°45'0 0.0
2014-Jul-19 00:33N 58°58' E 005°45'0 0.0
2014-Jul-18 23:33N 58°58' E 005°45'0 0.0
2014-Jul-18 22:26N 58°58' E 005°45'0 0.0
2014-Jul-18 21:31N 58°58' E 005°45'0 0.0
2014-Jul-18 20:31N 58°58' E 005°45'0 0.0
2014-Jul-18 19:29N 58°58' E 005°45'0 0.0
2014-Jul-18 18:32N 58°58' E 005°45'0 0.0
2014-Jul-18 17:31N 58°58' E 005°45'0 0.0
2014-Jul-18 16:32N 58°58' E 005°45'0 0.0
2014-Jul-18 15:31N 58°58' E 005°45'0 0.0
2014-Jul-18 14:34N 58°58' E 005°45'0 0.0
2014-Jul-18 13:32N 58°58' E 005°45'0 0.0
2014-Jul-18 12:32N 58°58' E 005°45'0 0.0
2014-Jul-18 11:28N 58°58' E 005°45'0 0.0
2014-Jul-18 10:34N 58°58' E 005°45'0 0.0
2014-Jul-18 09:33N 58°58' E 005°45'0 0.0
2014-Jul-18 08:32N 58°58' E 005°45'0 0.0
2014-Jul-18 07:32N 58°58' E 005°45'0 0.0
2014-Jul-18 06:34N 58°58' E 005°45'0 0.0
2014-Jul-18 05:33N 58°58' E 005°45'0 0.0
2014-Jul-18 04:33N 58°58' E 005°45'0 0.0
2014-Jul-18 03:31N 58°58' E 005°45'0 0.0
2014-Jul-18 02:31N 58°58' E 005°45'0 0.0
2014-Jul-18 01:32N 58°58' E 005°45'0 0.0
2014-Jul-18 00:33N 58°58' E 005°45'0 0.0
2014-Jul-17 23:33N 58°58' E 005°45'0 0.0
2014-Jul-17 22:33N 58°58' E 005°45'0 0.0
2014-Jul-17 21:30N 58°58' E 005°45'0 0.0
2014-Jul-17 20:31N 58°58' E 005°45'0 0.0
2014-Jul-17 19:27N 58°58' E 005°45'0 0.0
2014-Jul-17 18:32N 58°58' E 005°45'0 0.0
2014-Jul-17 17:31N 58°58' E 005°45'0 0.0
2014-Jul-17 16:33N 58°58' E 005°45'0 0.0
2014-Jul-17 15:33N 58°58' E 005°45'0 0.0
2014-Jul-17 14:32N 58°58' E 005°45'0 0.0
2014-Jul-17 13:32N 58°58' E 005°45'0 0.0
2014-Jul-17 12:33N 58°58' E 005°45'0 0.0
2014-Jul-17 11:33N 58°58' E 005°45'0 0.0
2014-Jul-17 10:32N 58°58' E 005°45'0 0.0
2014-Jul-17 09:31N 58°58' E 005°45'0 0.0
2014-Jul-17 08:31N 58°58' E 005°45'0 0.0
2014-Jul-17 07:29N 58°58' E 005°45'0 0.0
2014-Jul-17 06:33N 58°58' E 005°45'0 0.0
2014-Jul-17 05:32N 58°58' E 005°45'0 0.0
2014-Jul-17 04:32N 58°58' E 005°45'0 0.0
2014-Jul-17 03:31N 58°58' E 005°45'0 0.0
2014-Jul-17 02:31N 58°58' E 005°45'0 0.0
2014-Jul-17 01:32N 58°58' E 005°45'0 0.0
2014-Jul-17 00:32N 58°58' E 005°45'0 0.0
2014-Jul-16 23:32N 58°58' E 005°45'0 0.0
2014-Jul-16 22:32N 58°58' E 005°45'0 0.0
2014-Jul-16 21:29N 58°58' E 005°45'0 0.0
2014-Jul-16 20:33N 58°58' E 005°45'0 0.0
2014-Jul-16 19:33N 58°58' E 005°45'0 0.0
2014-Jul-16 18:31N 58°58' E 005°45'0 0.0
2014-Jul-16 17:33N 58°58' E 005°45'0 0.0
2014-Jul-16 16:33N 58°58' E 005°45'0 0.0
2014-Jul-16 15:28N 58°58' E 005°45'0 0.0
2014-Jul-16 14:26N 58°58' E 005°45'0 0.0
2014-Jul-16 13:33N 58°58' E 005°45'0 0.0
2014-Jul-16 12:32N 58°58' E 005°45'0 0.0
2014-Jul-16 11:33N 58°58' E 005°45'0 0.0
2014-Jul-16 10:30N 58°58' E 005°45'0 0.0
2014-Jul-16 09:33N 58°58' E 005°45'0 0.0
2014-Jul-16 08:33N 58°58' E 005°45'0 0.0
2014-Jul-16 07:32N 58°58' E 005°45'0 0.0
2014-Jul-16 06:30N 58°58' E 005°45'0 0.0
2014-Jul-16 05:33N 58°58' E 005°45'0 0.0
2014-Jul-16 04:33N 58°58' E 005°45'0 0.0
2014-Jul-16 03:31N 58°58' E 005°45'0 0.0
2014-Jul-16 02:31N 58°58' E 005°45'0 0.0
2014-Jul-16 01:32N 58°58' E 005°45'0 0.0
2014-Jul-16 00:30N 58°58' E 005°45'0 0.0
2014-Jul-15 23:31N 58°58' E 005°45'0 0.0
2014-Jul-15 22:26N 58°58' E 005°45'0 0.0
2014-Jul-15 21:27N 58°58' E 005°45'0 0.0
2014-Jul-15 20:31N 58°58' E 005°45'0 0.0
2014-Jul-15 19:29N 58°58' E 005°45'0 0.0
2014-Jul-15 18:32N 58°58' E 005°45'0 0.0
2014-Jul-15 17:32N 58°58' E 005°45'0 0.0
2014-Jul-15 16:33N 58°58' E 005°45'0 0.0
2014-Jul-15 15:32N 58°58' E 005°45'0 0.0
2014-Jul-15 14:33N 58°58' E 005°45'0 0.0
2014-Jul-15 13:31N 58°58' E 005°45'0 0.0
2014-Jul-15 12:33N 58°58' E 005°45'0 0.0
2014-Jul-15 11:31N 58°58' E 005°45'0 0.0
2014-Jul-15 10:33N 58°58' E 005°45'0 0.0
2014-Jul-15 09:33N 58°58' E 005°45'3 3.0
2014-Jul-15 08:33N 59°01' E 005°48'8 7.5
2014-Jul-15 07:33N 59°02' E 005°33'1010.2
2014-Jul-15 06:33N 58°52' E 005°31'6 6.3
2014-Jul-15 05:33N 58°48' E 005°20'26 6.2
2014-Jul-15 01:17N 58°22' E 005°23'2210.0
2014-Jul-14 23:06N 58°08' E 005°55'6 9.9
2014-Jul-14 22:28N 58°03' E 006°03'131 8.5
2014-Jul-14 07:06N 55°58' E 007°10'5 8.6
2014-Jul-14 06:33N 55°53' E 007°11'9 8.4
2014-Jul-14 05:32N 55°44' E 007°12'8 8.4
2014-Jul-14 04:33N 55°36' E 007°15'9 8.9
2014-Jul-14 03:33N 55°28' E 007°17'8 8.1
2014-Jul-14 02:32N 55°20' E 007°20'1616.1
2014-Jul-14 01:32N 55°03' E 007°22'1 1.2
2014-Jul-14 00:33N 55°02' E 007°22'21 8.6
2014-Jul-13 22:10N 54°42' E 007°21'76 9.5
2014-Jul-13 14:07N 54°29' E 005°11'5 9.3
2014-Jul-13 13:33N 54°24' E 005°07'9 9.4
2014-Jul-13 12:33N 54°16' E 004°58'10 9.4
2014-Jul-13 11:32N 54°08' E 004°50'5310.0
2014-Jul-13 06:17N 53°31' E 003°47'  

Dump ship's entire track history